sensor_id;sensor_type;location;lat;lon;timestamp;temperature;humidity
6468;DHT22;3267;48.794;9.928;2022-09-09T04:03:33;18.40;58.70
6468;DHT22;3267;48.794;9.928;2022-09-09T04:06:07;20.30;60.40
6468;DHT22;3267;48.794;9.928;2022-09-09T04:16:51;17.30;57.90
6468;DHT22;3267;48.794;9.928;2022-09-09T04:19:57;16.70;57.50
6468;DHT22;3267;48.794;9.928;2022-09-09T04:22:29;20.20;62.00
6468;DHT22;3267;48.794;9.928;2022-09-09T04:24:58;20.70;62.10
6468;DHT22;3267;48.794;9.928;2022-09-09T04:45:54;17.70;56.40
6468;DHT22;3267;48.794;9.928;2022-09-09T04:55:34;19.10;57.70
6468;DHT22;3267;48.794;9.928;2022-09-09T05:06:17;18.60;57.50
6468;DHT22;3267;48.794;9.928;2022-09-09T05:08:44;19.20;58.70
6468;DHT22;3267;48.794;9.928;2022-09-09T05:13:46;19.00;58.60
6468;DHT22;3267;48.794;9.928;2022-09-09T05:16:13;18.90;58.60
6468;DHT22;3267;48.794;9.928;2022-09-09T05:18:49;20.70;60.30
6468;DHT22;3267;48.794;9.928;2022-09-09T05:21:21;18.90;58.90
6468;DHT22;3267;48.794;9.928;2022-09-09T05:23:47;18.90;59.00
6468;DHT22;3267;48.794;9.928;2022-09-09T05:26:18;20.20;60.50
6468;DHT22;3267;48.794;9.928;2022-09-09T05:28:48;18.90;59.50
6468;DHT22;3267;48.794;9.928;2022-09-09T05:31:15;18.90;60.30
6468;DHT22;3267;48.794;9.928;2022-09-09T05:33:43;20.50;61.90
6468;DHT22;3267;48.794;9.928;2022-09-09T05:36:14;18.90;59.60
6468;DHT22;3267;48.794;9.928;2022-09-09T05:38:47;18.90;59.50
6468;DHT22;3267;48.794;9.928;2022-09-09T05:41:14;18.90;59.70
6468;DHT22;3267;48.794;9.928;2022-09-09T05:43:44;18.90;59.70
6468;DHT22;3267;48.794;9.928;2022-09-09T05:46:13;18.90;60.20
6468;DHT22;3267;48.794;9.928;2022-09-09T05:48:44;20.00;61.20
6468;DHT22;3267;48.794;9.928;2022-09-09T05:51:16;18.90;60.00
6468;DHT22;3267;48.794;9.928;2022-09-09T05:53:44;20.10;60.40
6468;DHT22;3267;48.794;9.928;2022-09-09T05:56:12;19.20;59.50
6468;DHT22;3267;48.794;9.928;2022-09-09T05:58:52;19.10;59.20
6468;DHT22;3267;48.794;9.928;2022-09-09T06:01:28;21.10;61.60
6468;DHT22;3267;48.794;9.928;2022-09-09T06:03:54;19.10;59.90
6468;DHT22;3267;48.794;9.928;2022-09-09T06:06:22;19.20;60.00
6468;DHT22;3267;48.794;9.928;2022-09-09T06:08:54;20.00;61.30
6468;DHT22;3267;48.794;9.928;2022-09-09T06:11:25;19.20;60.70
6468;DHT22;3267;48.794;9.928;2022-09-09T06:13:55;19.70;60.80
6468;DHT22;3267;48.794;9.928;2022-09-09T06:16:22;19.30;60.60
6468;DHT22;3267;48.794;9.928;2022-09-09T06:18:49;19.20;60.30
6468;DHT22;3267;48.794;9.928;2022-09-09T06:21:18;19.10;60.40
6468;DHT22;3267;48.794;9.928;2022-09-09T06:23:45;19.10;60.50
6468;DHT22;3267;48.794;9.928;2022-09-09T06:26:18;19.10;60.50
6468;DHT22;3267;48.794;9.928;2022-09-09T06:28:46;19.10;60.40
6468;DHT22;3267;48.794;9.928;2022-09-09T06:31:16;19.90;61.20
6468;DHT22;3267;48.794;9.928;2022-09-09T06:33:43;19.00;60.20
6468;DHT22;3267;48.794;9.928;2022-09-09T06:36:36;19.60;60.70
6468;DHT22;3267;48.794;9.928;2022-09-09T06:39:04;20.50;61.60
6468;DHT22;3267;48.794;9.928;2022-09-09T06:41:31;18.40;59.70
6468;DHT22;3267;48.794;9.928;2022-09-09T06:43:58;19.10;60.40
6468;DHT22;3267;48.794;9.928;2022-09-09T06:46:26;19.10;60.50
6468;DHT22;3267;48.794;9.928;2022-09-09T06:48:54;20.10;61.60
6468;DHT22;3267;48.794;9.928;2022-09-09T06:51:26;19.20;60.80
6468;DHT22;3267;48.794;9.928;2022-09-09T06:53:54;21.50;63.50
6468;DHT22;3267;48.794;9.928;2022-09-09T06:56:26;19.40;61.60
6468;DHT22;3267;48.794;9.928;2022-09-09T06:58:58;21.10;63.80
6468;DHT22;3267;48.794;9.928;2022-09-09T07:01:29;19.40;62.10
6468;DHT22;3267;48.794;9.928;2022-09-09T07:03:57;19.50;61.90
6468;DHT22;3267;48.794;9.928;2022-09-09T07:06:29;19.70;62.40
6468;DHT22;3267;48.794;9.928;2022-09-09T07:08:57;19.60;61.70
6468;DHT22;3267;48.794;9.928;2022-09-09T07:11:29;19.70;61.60
6468;DHT22;3267;48.794;9.928;2022-09-09T07:13:57;19.90;61.60
6468;DHT22;3267;48.794;9.928;2022-09-09T07:16:23;21.20;62.10
6468;DHT22;3267;48.794;9.928;2022-09-09T07:18:51;20.20;60.40
6468;DHT22;3267;48.794;9.928;2022-09-09T07:21:17;20.20;59.70
6468;DHT22;3267;48.794;9.928;2022-09-09T07:23:44;20.80;60.40
6468;DHT22;3267;48.794;9.928;2022-09-09T07:26:12;20.40;61.20
6468;DHT22;3267;48.794;9.928;2022-09-09T07:28:39;20.60;60.60
6468;DHT22;3267;48.794;9.928;2022-09-09T07:31:13;20.60;59.90
6468;DHT22;3267;48.794;9.928;2022-09-09T07:33:43;20.70;59.70
6468;DHT22;3267;48.794;9.928;2022-09-09T07:36:31;20.90;60.10
6468;DHT22;3267;48.794;9.928;2022-09-09T07:39:03;21.00;59.70
6468;DHT22;3267;48.794;9.928;2022-09-09T07:41:34;21.10;59.70
6468;DHT22;3267;48.794;9.928;2022-09-09T07:44:05;21.10;59.40
6468;DHT22;3267;48.794;9.928;2022-09-09T07:46:34;21.80;60.00
6468;DHT22;3267;48.794;9.928;2022-09-09T07:49:01;21.10;59.40
6468;DHT22;3267;48.794;9.928;2022-09-09T07:51:34;21.10;59.40
6468;DHT22;3267;48.794;9.928;2022-09-09T07:54:06;22.10;60.40
6468;DHT22;3267;48.794;9.928;2022-09-09T07:56:35;21.20;59.60
6468;DHT22;3267;48.794;9.928;2022-09-09T07:59:01;21.10;60.00
6468;DHT22;3267;48.794;9.928;2022-09-09T08:01:47;19.80;58.90
6468;DHT22;3267;48.794;9.928;2022-09-09T08:04:15;21.10;60.70
6468;DHT22;3267;48.794;9.928;2022-09-09T08:06:50;21.00;60.60
6468;DHT22;3267;48.794;9.928;2022-09-09T08:09:19;21.10;61.00
6468;DHT22;3267;48.794;9.928;2022-09-09T08:11:48;21.10;60.80
6468;DHT22;3267;48.794;9.928;2022-09-09T08:14:14;21.20;60.70
6468;DHT22;3267;48.794;9.928;2022-09-09T08:16:46;21.10;60.40
6468;DHT22;3267;48.794;9.928;2022-09-09T08:19:13;21.20;60.30
6468;DHT22;3267;48.794;9.928;2022-09-09T08:21:44;21.90;61.10
6468;DHT22;3267;48.794;9.928;2022-09-09T08:24:13;21.30;60.30
6468;DHT22;3267;48.794;9.928;2022-09-09T08:26:47;21.40;60.00
6468;DHT22;3267;48.794;9.928;2022-09-09T08:29:20;21.50;60.20
6468;DHT22;3267;48.794;9.928;2022-09-09T08:31:55;21.50;59.80
6468;DHT22;3267;48.794;9.928;2022-09-09T08:34:24;21.50;59.90
6468;DHT22;3267;48.794;9.928;2022-09-09T08:36:52;21.60;60.00
6468;DHT22;3267;48.794;9.928;2022-09-09T08:39:20;20.10;59.10
6468;DHT22;3267;48.794;9.928;2022-09-09T08:42:17;21.50;60.10
6468;DHT22;3267;48.794;9.928;2022-09-09T08:45:09;21.70;60.20
6468;DHT22;3267;48.794;9.928;2022-09-09T08:50:23;21.70;60.00
6468;DHT22;3267;48.794;9.928;2022-09-09T08:53:11;21.70;60.00
6468;DHT22;3267;48.794;9.928;2022-09-09T08:55:54;21.80;59.90
6468;DHT22;3267;48.794;9.928;2022-09-09T08:58:43;21.90;59.90
6468;DHT22;3267;48.794;9.928;2022-09-09T09:04:33;22.00;59.80
6468;DHT22;3267;48.794;9.928;2022-09-09T09:07:17;22.00;59.70
6468;DHT22;3267;48.794;9.928;2022-09-09T09:12:21;21.90;59.80
6468;DHT22;3267;48.794;9.928;2022-09-09T09:14:49;22.00;59.90
6468;DHT22;3267;48.794;9.928;2022-09-09T09:17:17;22.20;59.90
6468;DHT22;3267;48.794;9.928;2022-09-09T09:19:46;22.10;59.70
6468;DHT22;3267;48.794;9.928;2022-09-09T09:22:21;22.00;59.60
6468;DHT22;3267;48.794;9.928;2022-09-09T09:24:57;22.10;59.70
6468;DHT22;3267;48.794;9.928;2022-09-09T09:27:40;22.20;59.80
6468;DHT22;3267;48.794;9.928;2022-09-09T09:30:19;22.30;59.90
6468;DHT22;3267;48.794;9.928;2022-09-09T09:32:56;22.50;59.70
6468;DHT22;3267;48.794;9.928;2022-09-09T09:35:27;22.50;59.70
6468;DHT22;3267;48.794;9.928;2022-09-09T09:37:53;22.50;59.50
6468;DHT22;3267;48.794;9.928;2022-09-09T09:40:21;23.20;63.10
6468;DHT22;3267;48.794;9.928;2022-09-09T09:42:53;23.00;60.40
6468;DHT22;3267;48.794;9.928;2022-09-09T09:45:28;23.20;60.50
6468;DHT22;3267;48.794;9.928;2022-09-09T09:47:59;23.20;59.50
6468;DHT22;3267;48.794;9.928;2022-09-09T09:50:25;23.30;59.30
6468;DHT22;3267;48.794;9.928;2022-09-09T09:52:56;23.60;63.60
6468;DHT22;3267;48.794;9.928;2022-09-09T09:55:23;25.40;61.70
6468;DHT22;3267;48.794;9.928;2022-09-09T09:57:50;23.60;60.50
6468;DHT22;3267;48.794;9.928;2022-09-09T10:00:21;23.60;59.70
6468;DHT22;3267;48.794;9.928;2022-09-09T10:02:48;23.60;60.00
6468;DHT22;3267;48.794;9.928;2022-09-09T10:08:12;23.70;59.40
6468;DHT22;3267;48.794;9.928;2022-09-09T10:16:21;23.50;58.80
6468;DHT22;3267;48.794;9.928;2022-09-09T10:19:05;23.50;58.90
6468;DHT22;3267;48.794;9.928;2022-09-09T10:21:47;23.60;58.90
6468;DHT22;3267;48.794;9.928;2022-09-09T10:30:18;23.30;58.80
6468;DHT22;3267;48.794;9.928;2022-09-09T10:35:54;23.30;58.90
6468;DHT22;3267;48.794;9.928;2022-09-09T10:51:36;23.80;58.90
6468;DHT22;3267;48.794;9.928;2022-09-09T10:56:48;23.90;59.10
6468;DHT22;3267;48.794;9.928;2022-09-09T10:59:26;24.10;58.70
6468;DHT22;3267;48.794;9.928;2022-09-09T11:02:05;24.80;59.20
6468;DHT22;3267;48.794;9.928;2022-09-09T11:04:53;24.10;58.40
6468;DHT22;3267;48.794;9.928;2022-09-09T11:07:40;24.30;58.60
6468;DHT22;3267;48.794;9.928;2022-09-09T11:12:53;24.40;58.00
6468;DHT22;3267;48.794;9.928;2022-09-09T11:15:31;24.50;57.50
6468;DHT22;3267;48.794;9.928;2022-09-09T11:18:00;24.50;57.40
6468;DHT22;3267;48.794;9.928;2022-09-09T11:20:27;24.50;57.40
6468;DHT22;3267;48.794;9.928;2022-09-09T11:23:03;24.50;57.80
6468;DHT22;3267;48.794;9.928;2022-09-09T11:25:35;24.50;56.70
6468;DHT22;3267;48.794;9.928;2022-09-09T11:34:02;24.70;57.70
6468;DHT22;3267;48.794;9.928;2022-09-09T11:37:01;24.60;57.70
6468;DHT22;3267;48.794;9.928;2022-09-09T11:42:24;24.90;57.50
6468;DHT22;3267;48.794;9.928;2022-09-09T11:44:50;24.80;56.60
6468;DHT22;3267;48.794;9.928;2022-09-09T11:47:30;24.90;56.90
6468;DHT22;3267;48.794;9.928;2022-09-09T11:52:45;25.00;57.80
6468;DHT22;3267;48.794;9.928;2022-09-09T11:55:26;25.10;58.00
6468;DHT22;3267;48.794;9.928;2022-09-09T11:58:03;25.20;57.60
6468;DHT22;3267;48.794;9.928;2022-09-09T12:00:37;25.30;57.60
6468;DHT22;3267;48.794;9.928;2022-09-09T12:03:38;25.40;57.60
6468;DHT22;3267;48.794;9.928;2022-09-09T12:06:32;25.60;57.60
6468;DHT22;3267;48.794;9.928;2022-09-09T12:09:21;25.80;56.20
6468;DHT22;3267;48.794;9.928;2022-09-09T12:11:49;25.90;56.20
6468;DHT22;3267;48.794;9.928;2022-09-09T12:14:35;25.80;56.10
6468;DHT22;3267;48.794;9.928;2022-09-09T12:17:21;25.90;55.00
6468;DHT22;3267;48.794;9.928;2022-09-09T12:20:04;25.80;54.20
6468;DHT22;3267;48.794;9.928;2022-09-09T12:28:09;25.70;56.00
6468;DHT22;3267;48.794;9.928;2022-09-09T12:30:46;25.80;54.90
6468;DHT22;3267;48.794;9.928;2022-09-09T12:33:17;25.90;55.20
6468;DHT22;3267;48.794;9.928;2022-09-09T12:35:52;25.90;55.80
6468;DHT22;3267;48.794;9.928;2022-09-09T12:38:40;25.90;54.50
6468;DHT22;3267;48.794;9.928;2022-09-09T12:41:26;25.70;53.10
6468;DHT22;3267;48.794;9.928;2022-09-09T12:44:08;25.50;53.40
6468;DHT22;3267;48.794;9.928;2022-09-09T12:46:42;25.20;53.80
6468;DHT22;3267;48.794;9.928;2022-09-09T12:49:38;25.40;53.80
6468;DHT22;3267;48.794;9.928;2022-09-09T12:52:37;24.90;54.50
6468;DHT22;3267;48.794;9.928;2022-09-09T12:55:05;24.80;54.80
6468;DHT22;3267;48.794;9.928;2022-09-09T12:57:36;24.80;55.00
6468;DHT22;3267;48.794;9.928;2022-09-09T13:00:23;24.70;55.30
6468;DHT22;3267;48.794;9.928;2022-09-09T13:02:52;24.70;55.70
6468;DHT22;3267;48.794;9.928;2022-09-09T13:05:28;24.70;55.90
6468;DHT22;3267;48.794;9.928;2022-09-09T13:10:31;24.90;55.90
6468;DHT22;3267;48.794;9.928;2022-09-09T13:12:57;25.00;56.30
6468;DHT22;3267;48.794;9.928;2022-09-09T13:15:26;25.10;56.30
6468;DHT22;3267;48.794;9.928;2022-09-09T13:17:54;25.30;56.00
6468;DHT22;3267;48.794;9.928;2022-09-09T13:20:22;25.50;56.20
6468;DHT22;3267;48.794;9.928;2022-09-09T13:22:49;25.70;55.90
6468;DHT22;3267;48.794;9.928;2022-09-09T13:25:27;25.80;55.60
6468;DHT22;3267;48.794;9.928;2022-09-09T13:27:56;26.30;55.40
6468;DHT22;3267;48.794;9.928;2022-09-09T13:30:27;26.80;55.30
6468;DHT22;3267;48.794;9.928;2022-09-09T13:33:03;27.20;54.10
6468;DHT22;3267;48.794;9.928;2022-09-09T13:35:29;27.70;54.00
6468;DHT22;3267;48.794;9.928;2022-09-09T13:37:55;27.90;52.60
6468;DHT22;3267;48.794;9.928;2022-09-09T13:40:23;28.20;52.60
6468;DHT22;3267;48.794;9.928;2022-09-09T13:42:55;28.50;52.70
6468;DHT22;3267;48.794;9.928;2022-09-09T13:45:24;28.80;52.20
6468;DHT22;3267;48.794;9.928;2022-09-09T13:47:53;29.10;51.20
6468;DHT22;3267;48.794;9.928;2022-09-09T13:50:29;29.40;50.60
6468;DHT22;3267;48.794;9.928;2022-09-09T13:52:57;29.60;50.50
6468;DHT22;3267;48.794;9.928;2022-09-09T13:55:28;29.80;49.90
6468;DHT22;3267;48.794;9.928;2022-09-09T13:58:00;30.00;49.80
6468;DHT22;3267;48.794;9.928;2022-09-09T14:00:30;30.00;50.10
6468;DHT22;3267;48.794;9.928;2022-09-09T14:02:56;30.20;49.40
6468;DHT22;3267;48.794;9.928;2022-09-09T14:05:22;30.40;48.90
6468;DHT22;3267;48.794;9.928;2022-09-09T14:07:49;30.60;49.60
6468;DHT22;3267;48.794;9.928;2022-09-09T14:10:16;30.90;49.20
6468;DHT22;3267;48.794;9.928;2022-09-09T14:12:43;31.10;48.70
6468;DHT22;3267;48.794;9.928;2022-09-09T14:15:11;31.00;48.80
6468;DHT22;3267;48.794;9.928;2022-09-09T14:17:37;31.10;49.40
6468;DHT22;3267;48.794;9.928;2022-09-09T14:20:05;30.50;49.30
6468;DHT22;3267;48.794;9.928;2022-09-09T14:22:33;30.20;50.10
6468;DHT22;3267;48.794;9.928;2022-09-09T14:24:59;30.40;51.50
6468;DHT22;3267;48.794;9.928;2022-09-09T14:27:25;30.50;50.80
6468;DHT22;3267;48.794;9.928;2022-09-09T14:29:52;30.60;50.80
6468;DHT22;3267;48.794;9.928;2022-09-09T14:32:18;30.80;50.90
6468;DHT22;3267;48.794;9.928;2022-09-09T14:34:45;30.90;49.50
6468;DHT22;3267;48.794;9.928;2022-09-09T14:37:11;30.80;50.00
6468;DHT22;3267;48.794;9.928;2022-09-09T14:39:37;30.60;49.60
6468;DHT22;3267;48.794;9.928;2022-09-09T14:42:03;30.60;49.00
6468;DHT22;3267;48.794;9.928;2022-09-09T14:44:29;30.50;48.70
6468;DHT22;3267;48.794;9.928;2022-09-09T14:46:55;30.60;49.00
6468;DHT22;3267;48.794;9.928;2022-09-09T14:49:23;30.90;49.40
6468;DHT22;3267;48.794;9.928;2022-09-09T14:51:48;31.30;49.60
6468;DHT22;3267;48.794;9.928;2022-09-09T14:54:14;31.70;49.80
6468;DHT22;3267;48.794;9.928;2022-09-09T14:56:40;32.10;48.10
6468;DHT22;3267;48.794;9.928;2022-09-09T14:59:06;32.40;46.80
6468;DHT22;3267;48.794;9.928;2022-09-09T15:01:32;32.80;47.50
6468;DHT22;3267;48.794;9.928;2022-09-09T15:04:03;33.10;46.20
6468;DHT22;3267;48.794;9.928;2022-09-09T15:06:32;33.10;45.80
6468;DHT22;3267;48.794;9.928;2022-09-09T15:08:58;33.20;45.60
6468;DHT22;3267;48.794;9.928;2022-09-09T15:11:29;33.30;46.60
6468;DHT22;3267;48.794;9.928;2022-09-09T15:14:00;33.10;45.60
6468;DHT22;3267;48.794;9.928;2022-09-09T15:16:27;33.40;46.30
6468;DHT22;3267;48.794;9.928;2022-09-09T15:18:56;33.50;46.10
6468;DHT22;3267;48.794;9.928;2022-09-09T15:21:25;33.60;43.40
6468;DHT22;3267;48.794;9.928;2022-09-09T15:23:51;33.70;44.80
6468;DHT22;3267;48.794;9.928;2022-09-09T15:26:18;33.80;44.70
6468;DHT22;3267;48.794;9.928;2022-09-09T15:28:45;33.80;45.10
6468;DHT22;3267;48.794;9.928;2022-09-09T15:31:14;33.80;42.80
6468;DHT22;3267;48.794;9.928;2022-09-09T15:33:40;33.90;44.20
6468;DHT22;3267;48.794;9.928;2022-09-09T15:36:18;34.10;43.50
6468;DHT22;3267;48.794;9.928;2022-09-09T15:38:44;34.30;43.10
6468;DHT22;3267;48.794;9.928;2022-09-09T15:41:11;34.30;43.30
6468;DHT22;3267;48.794;9.928;2022-09-09T15:43:38;34.30;44.30
6468;DHT22;3267;48.794;9.928;2022-09-09T15:46:35;34.20;43.80
6468;DHT22;3267;48.794;9.928;2022-09-09T15:49:09;34.10;45.30
6468;DHT22;3267;48.794;9.928;2022-09-09T15:51:37;33.50;44.60
6468;DHT22;3267;48.794;9.928;2022-09-09T15:54:03;32.90;44.70
6468;DHT22;3267;48.794;9.928;2022-09-09T15:56:30;32.30;45.80
6468;DHT22;3267;48.794;9.928;2022-09-09T15:58:59;31.90;46.30
6468;DHT22;3267;48.794;9.928;2022-09-09T16:01:26;31.30;46.30
6468;DHT22;3267;48.794;9.928;2022-09-09T16:03:55;30.60;45.50
6468;DHT22;3267;48.794;9.928;2022-09-09T16:06:23;30.10;46.80
6468;DHT22;3267;48.794;9.928;2022-09-09T16:08:51;29.80;47.90
6468;DHT22;3267;48.794;9.928;2022-09-09T16:11:23;29.10;47.50
6468;DHT22;3267;48.794;9.928;2022-09-09T16:13:54;28.90;49.40
6468;DHT22;3267;48.794;9.928;2022-09-09T16:16:23;30.60;51.20
6468;DHT22;3267;48.794;9.928;2022-09-09T16:18:51;28.40;48.70
6468;DHT22;3267;48.794;9.928;2022-09-09T16:21:23;28.10;49.70
6468;DHT22;3267;48.794;9.928;2022-09-09T16:23:51;27.80;49.20
6468;DHT22;3267;48.794;9.928;2022-09-09T16:26:18;27.70;50.20
6468;DHT22;3267;48.794;9.928;2022-09-09T16:28:44;27.50;50.00
6468;DHT22;3267;48.794;9.928;2022-09-09T16:31:18;28.30;50.90
6468;DHT22;3267;48.794;9.928;2022-09-09T16:33:45;27.20;50.50
6468;DHT22;3267;48.794;9.928;2022-09-09T16:36:14;27.10;51.20
6468;DHT22;3267;48.794;9.928;2022-09-09T16:38:41;27.00;51.50
6468;DHT22;3267;48.794;9.928;2022-09-09T16:41:12;26.90;51.60
6468;DHT22;3267;48.794;9.928;2022-09-09T16:43:39;26.80;51.50
6468;DHT22;3267;48.794;9.928;2022-09-09T16:46:13;27.50;53.40
6468;DHT22;3267;48.794;9.928;2022-09-09T16:48:41;26.60;50.30
6468;DHT22;3267;48.794;9.928;2022-09-09T16:51:15;26.50;53.00
6468;DHT22;3267;48.794;9.928;2022-09-09T16:53:42;26.50;52.50
6468;DHT22;3267;48.794;9.928;2022-09-09T16:56:16;26.50;53.20
6468;DHT22;3267;48.794;9.928;2022-09-09T16:58:43;26.90;54.10
6468;DHT22;3267;48.794;9.928;2022-09-09T17:01:10;26.30;53.00
6468;DHT22;3267;48.794;9.928;2022-09-09T17:03:40;26.80;53.60
6468;DHT22;3267;48.794;9.928;2022-09-09T17:06:11;26.20;53.40
6468;DHT22;3267;48.794;9.928;2022-09-09T17:08:40;26.10;53.40
6468;DHT22;3267;48.794;9.928;2022-09-09T17:11:15;26.00;53.60
6468;DHT22;3267;48.794;9.928;2022-09-09T17:13:46;25.90;53.20
6468;DHT22;3267;48.794;9.928;2022-09-09T17:16:16;25.80;53.30
6468;DHT22;3267;48.794;9.928;2022-09-09T17:18:43;24.90;52.40
6468;DHT22;3267;48.794;9.928;2022-09-09T17:21:13;25.70;53.60
6468;DHT22;3267;48.794;9.928;2022-09-09T17:23:41;25.60;52.40
6468;DHT22;3267;48.794;9.928;2022-09-09T17:26:09;25.40;52.90
6468;DHT22;3267;48.794;9.928;2022-09-09T17:28:39;25.30;52.80
6468;DHT22;3267;48.794;9.928;2022-09-09T17:31:12;25.20;53.30
6468;DHT22;3267;48.794;9.928;2022-09-09T17:33:41;25.10;53.20
6468;DHT22;3267;48.794;9.928;2022-09-09T17:36:13;25.10;53.50
6468;DHT22;3267;48.794;9.928;2022-09-09T17:38:43;25.00;53.60
6468;DHT22;3267;48.794;9.928;2022-09-09T17:41:15;24.90;52.40
6468;DHT22;3267;48.794;9.928;2022-09-09T17:43:42;24.90;53.60
6468;DHT22;3267;48.794;9.928;2022-09-09T17:46:09;24.80;52.30
6468;DHT22;3267;48.794;9.928;2022-09-09T17:48:36;24.70;52.90
6468;DHT22;3267;48.794;9.928;2022-09-09T17:51:07;24.50;50.80
6468;DHT22;3267;48.794;9.928;2022-09-09T17:53:42;24.30;50.80
6468;DHT22;3267;48.794;9.928;2022-09-09T17:56:12;24.20;50.60
6468;DHT22;3267;48.794;9.928;2022-09-09T17:58:39;23.90;50.60
6468;DHT22;3267;48.794;9.928;2022-09-09T18:01:06;23.80;51.10
6468;DHT22;3267;48.794;9.928;2022-09-09T18:03:36;23.70;51.70
6468;DHT22;3267;48.794;9.928;2022-09-09T18:06:04;23.60;52.30
6468;DHT22;3267;48.794;9.928;2022-09-09T18:08:31;23.60;52.70
6468;DHT22;3267;48.794;9.928;2022-09-09T18:10:57;23.60;53.00
6468;DHT22;3267;48.794;9.928;2022-09-09T18:13:23;23.50;53.20
6468;DHT22;3267;48.794;9.928;2022-09-09T18:15:49;25.00;54.50
6468;DHT22;3267;48.794;9.928;2022-09-09T18:18:15;24.70;54.40
6468;DHT22;3267;48.794;9.928;2022-09-09T18:20:43;23.20;53.30
6468;DHT22;3267;48.794;9.928;2022-09-09T18:23:09;23.20;53.90
6468;DHT22;3267;48.794;9.928;2022-09-09T18:25:39;25.00;55.20
6468;DHT22;3267;48.794;9.928;2022-09-09T18:28:05;23.20;53.80
6468;DHT22;3267;48.794;9.928;2022-09-09T18:30:44;23.20;54.00
6468;DHT22;3267;48.794;9.928;2022-09-09T18:33:10;24.50;55.20
6468;DHT22;3267;48.794;9.928;2022-09-09T18:35:59;23.00;54.10
6468;DHT22;3267;48.794;9.928;2022-09-09T18:39:07;22.90;54.20
6468;DHT22;3267;48.794;9.928;2022-09-09T18:52:46;21.30;53.80
6468;DHT22;3267;48.794;9.928;2022-09-09T18:55:40;23.20;55.40
6468;DHT22;3267;48.794;9.928;2022-09-09T18:58:55;22.90;55.60
6468;DHT22;3267;48.794;9.928;2022-09-09T19:01:23;22.70;55.50
6468;DHT22;3267;48.794;9.928;2022-09-09T19:03:50;22.70;55.40
6468;DHT22;3267;48.794;9.928;2022-09-09T19:06:19;22.70;55.40
6468;DHT22;3267;48.794;9.928;2022-09-09T19:08:47;22.90;55.80
6468;DHT22;3267;48.794;9.928;2022-09-09T19:11:16;22.40;55.40
6468;DHT22;3267;48.794;9.928;2022-09-09T19:13:48;23.10;56.00
6468;DHT22;3267;48.794;9.928;2022-09-09T19:16:14;22.20;55.10
6468;DHT22;3267;48.794;9.928;2022-09-09T19:18:41;22.10;55.40
6468;DHT22;3267;48.794;9.928;2022-09-09T19:21:17;22.00;55.20
6468;DHT22;3267;48.794;9.928;2022-09-09T19:23:45;21.90;55.30
6468;DHT22;3267;48.794;9.928;2022-09-09T19:26:11;21.90;55.40
6468;DHT22;3267;48.794;9.928;2022-09-09T19:28:41;21.90;55.60
6468;DHT22;3267;48.794;9.928;2022-09-09T19:31:10;21.80;55.50
6468;DHT22;3267;48.794;9.928;2022-09-09T19:33:36;21.80;55.40
6468;DHT22;3267;48.794;9.928;2022-09-09T19:36:06;22.20;55.80
6468;DHT22;3267;48.794;9.928;2022-09-09T19:38:33;21.60;55.30
6468;DHT22;3267;48.794;9.928;2022-09-09T19:41:05;23.10;56.70
6468;DHT22;3267;48.794;9.928;2022-09-09T19:43:32;21.60;55.30
6468;DHT22;3267;48.794;9.928;2022-09-09T19:46:03;21.50;55.40
6468;DHT22;3267;48.794;9.928;2022-09-09T19:48:31;21.50;55.60
6468;DHT22;3267;48.794;9.928;2022-09-09T19:51:04;21.50;55.70
6468;DHT22;3267;48.794;9.928;2022-09-09T19:53:34;21.50;55.70
6468;DHT22;3267;48.794;9.928;2022-09-09T19:56:01;21.50;55.90
6468;DHT22;3267;48.794;9.928;2022-09-09T19:58:29;21.40;56.00
6468;DHT22;3267;48.794;9.928;2022-09-09T20:01:32;21.40;55.90
6468;DHT22;3267;48.794;9.928;2022-09-09T20:04:00;21.30;56.10
6468;DHT22;3267;48.794;9.928;2022-09-09T20:06:33;21.30;56.20
6468;DHT22;3267;48.794;9.928;2022-09-09T20:09:00;21.40;56.50
6468;DHT22;3267;48.794;9.928;2022-09-09T20:11:27;21.30;56.60
6468;DHT22;3267;48.794;9.928;2022-09-09T20:13:53;21.30;56.80
6468;DHT22;3267;48.794;9.928;2022-09-09T20:16:37;22.40;58.10
6468;DHT22;3267;48.794;9.928;2022-09-09T20:19:05;21.40;57.00
6468;DHT22;3267;48.794;9.928;2022-09-09T20:21:36;21.40;56.90
6468;DHT22;3267;48.794;9.928;2022-09-09T20:24:05;21.30;56.80
6468;DHT22;3267;48.794;9.928;2022-09-09T20:26:33;21.40;56.90
6468;DHT22;3267;48.794;9.928;2022-09-09T20:29:03;21.70;57.10
6468;DHT22;3267;48.794;9.928;2022-09-09T20:31:32;21.40;57.00
6468;DHT22;3267;48.794;9.928;2022-09-09T20:34:03;21.50;56.90
6468;DHT22;3267;48.794;9.928;2022-09-09T20:36:33;21.40;56.80
6468;DHT22;3267;48.794;9.928;2022-09-09T20:39:11;21.30;56.40
6468;DHT22;3267;48.794;9.928;2022-09-09T20:41:40;21.30;57.00
6468;DHT22;3267;48.794;9.928;2022-09-09T20:44:09;21.20;56.30
6468;DHT22;3267;48.794;9.928;2022-09-09T20:46:41;21.50;56.60
6468;DHT22;3267;48.794;9.928;2022-09-09T20:49:09;21.10;56.10
6468;DHT22;3267;48.794;9.928;2022-09-09T20:51:36;21.10;56.10
6468;DHT22;3267;48.794;9.928;2022-09-09T20:54:05;21.10;56.00
6468;DHT22;3267;48.794;9.928;2022-09-09T20:56:33;21.00;55.50
6468;DHT22;3267;48.794;9.928;2022-09-09T20:59:03;21.00;55.80
6468;DHT22;3267;48.794;9.928;2022-09-09T21:01:29;21.00;55.90
6468;DHT22;3267;48.794;9.928;2022-09-09T21:03:55;21.00;55.40
6468;DHT22;3267;48.794;9.928;2022-09-09T21:06:21;21.00;55.70
6468;DHT22;3267;48.794;9.928;2022-09-09T21:08:48;22.50;56.40
6468;DHT22;3267;48.794;9.928;2022-09-09T21:11:14;21.00;56.00
6468;DHT22;3267;48.794;9.928;2022-09-09T21:13:40;21.00;55.80
6468;DHT22;3267;48.794;9.928;2022-09-09T21:16:08;21.00;55.50
6468;DHT22;3267;48.794;9.928;2022-09-09T21:18:35;20.90;55.50
6468;DHT22;3267;48.794;9.928;2022-09-09T21:21:02;21.00;55.30
6468;DHT22;3267;48.794;9.928;2022-09-09T21:23:29;20.90;55.50
6468;DHT22;3267;48.794;9.928;2022-09-09T21:25:54;20.90;55.40
6468;DHT22;3267;48.794;9.928;2022-09-09T21:28:21;20.80;55.40
